sensor_id;sensor_type;location;lat;lon;timestamp;P1;durP1;ratioP1;P2;durP2;ratioP2
20966;SDS011;10642;50.682;18.510;2023-08-12T00:01:17;7.40;;;4.20;;
20966;SDS011;10642;50.682;18.510;2023-08-12T00:03:48;5.37;;;3.77;;
20966;SDS011;10642;50.682;18.510;2023-08-12T00:06:15;6.10;;;3.77;;
20966;SDS011;10642;50.682;18.510;2023-08-12T00:08:42;6.27;;;3.70;;
20966;SDS011;10642;50.682;18.510;2023-08-12T00:11:09;7.17;;;4.20;;
20966;SDS011;10642;50.682;18.510;2023-08-12T00:13:36;5.53;;;4.27;;
20966;SDS011;10642;50.682;18.510;2023-08-12T00:16:03;11.23;;;4.80;;
20966;SDS011;10642;50.682;18.510;2023-08-12T00:18:30;9.03;;;4.67;;
20966;SDS011;10642;50.682;18.510;2023-08-12T00:21:05;6.67;;;4.53;;
20966;SDS011;10642;50.682;18.510;2023-08-12T00:23:32;9.23;;;4.50;;
20966;SDS011;10642;50.682;18.510;2023-08-12T00:26:00;7.33;;;4.73;;
20966;SDS011;10642;50.682;18.510;2023-08-12T00:28:26;7.40;;;4.80;;
20966;SDS011;10642;50.682;18.510;2023-08-12T00:30:53;7.40;;;4.50;;
20966;SDS011;10642;50.682;18.510;2023-08-12T00:33:20;6.97;;;4.50;;
20966;SDS011;10642;50.682;18.510;2023-08-12T00:35:47;12.77;;;4.63;;
20966;SDS011;10642;50.682;18.510;2023-08-12T00:38:14;8.27;;;4.70;;
20966;SDS011;10642;50.682;18.510;2023-08-12T00:40:41;7.20;;;4.60;;
20966;SDS011;10642;50.682;18.510;2023-08-12T00:43:08;6.67;;;5.47;;
20966;SDS011;10642;50.682;18.510;2023-08-12T00:45:36;7.00;;;4.63;;
20966;SDS011;10642;50.682;18.510;2023-08-12T00:48:03;7.10;;;5.47;;
20966;SDS011;10642;50.682;18.510;2023-08-12T00:50:33;8.17;;;5.73;;
20966;SDS011;10642;50.682;18.510;2023-08-12T00:53:01;6.57;;;4.20;;
20966;SDS011;10642;50.682;18.510;2023-08-12T00:55:28;8.73;;;4.90;;
20966;SDS011;10642;50.682;18.510;2023-08-12T00:57:57;10.07;;;5.20;;
20966;SDS011;10642;50.682;18.510;2023-08-12T01:00:25;5.87;;;3.50;;
20966;SDS011;10642;50.682;18.510;2023-08-12T01:02:52;10.87;;;4.77;;
20966;SDS011;10642;50.682;18.510;2023-08-12T01:05:20;7.40;;;5.13;;
20966;SDS011;10642;50.682;18.510;2023-08-12T01:07:47;8.40;;;5.27;;
20966;SDS011;10642;50.682;18.510;2023-08-12T01:10:15;7.43;;;5.37;;
20966;SDS011;10642;50.682;18.510;2023-08-12T01:12:45;10.53;;;4.90;;
20966;SDS011;10642;50.682;18.510;2023-08-12T01:15:15;9.20;;;5.47;;
20966;SDS011;10642;50.682;18.510;2023-08-12T01:17:43;8.93;;;5.60;;
20966;SDS011;10642;50.682;18.510;2023-08-12T01:20:11;8.57;;;5.63;;
20966;SDS011;10642;50.682;18.510;2023-08-12T01:22:41;8.07;;;5.43;;
20966;SDS011;10642;50.682;18.510;2023-08-12T01:25:10;8.77;;;5.50;;
20966;SDS011;10642;50.682;18.510;2023-08-12T01:27:37;9.63;;;5.93;;
20966;SDS011;10642;50.682;18.510;2023-08-12T01:30:04;9.43;;;5.47;;
20966;SDS011;10642;50.682;18.510;2023-08-12T01:33:09;8.83;;;5.60;;
20966;SDS011;10642;50.682;18.510;2023-08-12T01:35:32;7.83;;;4.80;;
20966;SDS011;10642;50.682;18.510;2023-08-12T01:38:02;9.43;;;4.80;;
20966;SDS011;10642;50.682;18.510;2023-08-12T01:40:30;9.57;;;4.03;;
20966;SDS011;10642;50.682;18.510;2023-08-12T01:42:58;6.33;;;4.53;;
20966;SDS011;10642;50.682;18.510;2023-08-12T01:45:25;10.37;;;4.93;;
20966;SDS011;10642;50.682;18.510;2023-08-12T01:47:52;7.97;;;5.67;;
20966;SDS011;10642;50.682;18.510;2023-08-12T01:50:20;9.97;;;5.77;;
20966;SDS011;10642;50.682;18.510;2023-08-12T01:52:48;9.03;;;5.63;;
20966;SDS011;10642;50.682;18.510;2023-08-12T01:55:15;8.27;;;6.20;;
20966;SDS011;10642;50.682;18.510;2023-08-12T01:57:42;13.53;;;6.27;;
20966;SDS011;10642;50.682;18.510;2023-08-12T02:00:09;10.27;;;6.17;;
20966;SDS011;10642;50.682;18.510;2023-08-12T02:02:42;8.37;;;5.43;;
20966;SDS011;10642;50.682;18.510;2023-08-12T02:05:09;9.57;;;6.60;;
20966;SDS011;10642;50.682;18.510;2023-08-12T02:07:36;9.67;;;6.73;;
20966;SDS011;10642;50.682;18.510;2023-08-12T02:10:03;10.63;;;6.83;;
20966;SDS011;10642;50.682;18.510;2023-08-12T02:12:31;11.13;;;6.23;;
20966;SDS011;10642;50.682;18.510;2023-08-12T02:14:57;8.83;;;6.90;;
20966;SDS011;10642;50.682;18.510;2023-08-12T02:17:24;9.63;;;6.90;;
20966;SDS011;10642;50.682;18.510;2023-08-12T02:19:51;9.67;;;6.67;;
20966;SDS011;10642;50.682;18.510;2023-08-12T02:22:18;16.30;;;8.63;;
20966;SDS011;10642;50.682;18.510;2023-08-12T02:24:46;10.47;;;7.47;;
20966;SDS011;10642;50.682;18.510;2023-08-12T02:27:13;12.97;;;7.53;;
20966;SDS011;10642;50.682;18.510;2023-08-12T02:29:40;10.57;;;7.20;;
20966;SDS011;10642;50.682;18.510;2023-08-12T02:32:07;9.70;;;6.83;;
20966;SDS011;10642;50.682;18.510;2023-08-12T02:34:34;11.87;;;6.67;;
20966;SDS011;10642;50.682;18.510;2023-08-12T02:37:00;15.90;;;8.33;;
20966;SDS011;10642;50.682;18.510;2023-08-12T02:39:29;13.40;;;8.47;;
20966;SDS011;10642;50.682;18.510;2023-08-12T02:41:56;13.20;;;9.33;;
20966;SDS011;10642;50.682;18.510;2023-08-12T02:44:23;12.47;;;8.47;;
20966;SDS011;10642;50.682;18.510;2023-08-12T02:46:50;10.47;;;6.80;;
20966;SDS011;10642;50.682;18.510;2023-08-12T02:49:17;10.03;;;6.77;;
20966;SDS011;10642;50.682;18.510;2023-08-12T02:51:44;9.00;;;6.10;;
20966;SDS011;10642;50.682;18.510;2023-08-12T02:54:12;9.50;;;6.03;;
20966;SDS011;10642;50.682;18.510;2023-08-12T02:56:39;13.63;;;6.57;;
20966;SDS011;10642;50.682;18.510;2023-08-12T02:59:06;9.33;;;6.90;;
20966;SDS011;10642;50.682;18.510;2023-08-12T03:01:33;13.83;;;7.13;;
20966;SDS011;10642;50.682;18.510;2023-08-12T03:04:00;10.60;;;6.93;;
20966;SDS011;10642;50.682;18.510;2023-08-12T03:06:27;14.70;;;8.47;;
20966;SDS011;10642;50.682;18.510;2023-08-12T03:08:54;13.43;;;9.23;;
20966;SDS011;10642;50.682;18.510;2023-08-12T03:11:21;22.27;;;12.20;;
20966;SDS011;10642;50.682;18.510;2023-08-12T03:13:51;18.90;;;11.33;;
20966;SDS011;10642;50.682;18.510;2023-08-12T03:16:19;25.43;;;11.83;;
20966;SDS011;10642;50.682;18.510;2023-08-12T03:18:46;19.63;;;11.17;;
20966;SDS011;10642;50.682;18.510;2023-08-12T03:21:13;20.60;;;12.20;;
20966;SDS011;10642;50.682;18.510;2023-08-12T03:23:41;17.90;;;11.53;;
20966;SDS011;10642;50.682;18.510;2023-08-12T03:26:09;15.57;;;10.50;;
20966;SDS011;10642;50.682;18.510;2023-08-12T03:28:36;15.70;;;9.27;;
20966;SDS011;10642;50.682;18.510;2023-08-12T03:31:03;18.23;;;10.70;;
20966;SDS011;10642;50.682;18.510;2023-08-12T03:33:32;15.33;;;10.97;;
20966;SDS011;10642;50.682;18.510;2023-08-12T03:36:01;11.93;;;8.27;;
20966;SDS011;10642;50.682;18.510;2023-08-12T03:38:29;13.07;;;8.97;;
20966;SDS011;10642;50.682;18.510;2023-08-12T03:40:56;13.13;;;9.03;;
20966;SDS011;10642;50.682;18.510;2023-08-12T03:43:23;18.60;;;10.77;;
20966;SDS011;10642;50.682;18.510;2023-08-12T03:45:51;13.97;;;9.97;;
20966;SDS011;10642;50.682;18.510;2023-08-12T03:48:19;17.57;;;10.73;;
20966;SDS011;10642;50.682;18.510;2023-08-12T03:50:46;16.00;;;10.03;;
20966;SDS011;10642;50.682;18.510;2023-08-12T03:53:14;20.43;;;10.80;;
20966;SDS011;10642;50.682;18.510;2023-08-12T03:55:41;24.47;;;12.53;;
20966;SDS011;10642;50.682;18.510;2023-08-12T03:58:10;20.37;;;11.80;;
20966;SDS011;10642;50.682;18.510;2023-08-12T04:00:40;18.50;;;12.47;;
20966;SDS011;10642;50.682;18.510;2023-08-12T04:03:07;14.77;;;11.03;;
20966;SDS011;10642;50.682;18.510;2023-08-12T04:05:34;16.13;;;10.50;;
20966;SDS011;10642;50.682;18.510;2023-08-12T04:08:01;23.10;;;12.47;;
20966;SDS011;10642;50.682;18.510;2023-08-12T04:10:29;16.63;;;12.30;;
20966;SDS011;10642;50.682;18.510;2023-08-12T04:12:57;24.43;;;12.70;;
20966;SDS011;10642;50.682;18.510;2023-08-12T04:15:23;20.07;;;12.53;;
20966;SDS011;10642;50.682;18.510;2023-08-12T04:17:50;19.17;;;13.03;;
20966;SDS011;10642;50.682;18.510;2023-08-12T04:20:18;22.23;;;12.17;;
20966;SDS011;10642;50.682;18.510;2023-08-12T04:22:45;22.17;;;14.27;;
20966;SDS011;10642;50.682;18.510;2023-08-12T04:25:15;17.50;;;11.87;;
20966;SDS011;10642;50.682;18.510;2023-08-12T04:27:42;15.10;;;11.47;;
20966;SDS011;10642;50.682;18.510;2023-08-12T04:30:09;16.47;;;10.83;;
20966;SDS011;10642;50.682;18.510;2023-08-12T04:32:37;13.83;;;10.73;;
20966;SDS011;10642;50.682;18.510;2023-08-12T04:35:06;15.27;;;9.20;;
20966;SDS011;10642;50.682;18.510;2023-08-12T04:37:36;15.30;;;9.17;;
20966;SDS011;10642;50.682;18.510;2023-08-12T04:40:04;16.53;;;8.60;;
20966;SDS011;10642;50.682;18.510;2023-08-12T04:42:31;18.03;;;9.63;;
20966;SDS011;10642;50.682;18.510;2023-08-12T04:44:58;12.90;;;9.23;;
20966;SDS011;10642;50.682;18.510;2023-08-12T04:47:28;13.67;;;9.50;;
20966;SDS011;10642;50.682;18.510;2023-08-12T04:49:56;13.00;;;9.50;;
20966;SDS011;10642;50.682;18.510;2023-08-12T04:52:23;13.33;;;9.33;;
20966;SDS011;10642;50.682;18.510;2023-08-12T04:54:52;16.37;;;9.00;;
20966;SDS011;10642;50.682;18.510;2023-08-12T04:57:21;13.70;;;9.17;;
20966;SDS011;10642;50.682;18.510;2023-08-12T04:59:48;12.27;;;9.10;;
20966;SDS011;10642;50.682;18.510;2023-08-12T05:02:15;14.57;;;9.63;;
20966;SDS011;10642;50.682;18.510;2023-08-12T05:04:49;13.63;;;9.23;;
20966;SDS011;10642;50.682;18.510;2023-08-12T05:07:17;16.03;;;10.63;;
20966;SDS011;10642;50.682;18.510;2023-08-12T05:09:44;15.90;;;10.20;;
20966;SDS011;10642;50.682;18.510;2023-08-12T05:12:13;13.60;;;10.20;;
20966;SDS011;10642;50.682;18.510;2023-08-12T05:14:40;15.00;;;10.80;;
20966;SDS011;10642;50.682;18.510;2023-08-12T05:17:08;14.73;;;10.40;;
20966;SDS011;10642;50.682;18.510;2023-08-12T05:19:35;14.40;;;9.80;;
20966;SDS011;10642;50.682;18.510;2023-08-12T05:22:02;15.77;;;10.03;;
20966;SDS011;10642;50.682;18.510;2023-08-12T05:24:29;18.60;;;11.13;;
20966;SDS011;10642;50.682;18.510;2023-08-12T05:26:56;13.03;;;10.20;;
20966;SDS011;10642;50.682;18.510;2023-08-12T05:29:23;15.47;;;10.47;;
20966;SDS011;10642;50.682;18.510;2023-08-12T05:31:50;18.03;;;9.97;;
20966;SDS011;10642;50.682;18.510;2023-08-12T05:34:17;13.77;;;9.33;;
20966;SDS011;10642;50.682;18.510;2023-08-12T05:36:44;13.03;;;9.17;;
20966;SDS011;10642;50.682;18.510;2023-08-12T05:39:11;13.67;;;8.80;;
20966;SDS011;10642;50.682;18.510;2023-08-12T05:41:38;17.17;;;8.47;;
20966;SDS011;10642;50.682;18.510;2023-08-12T05:44:05;12.30;;;7.80;;
20966;SDS011;10642;50.682;18.510;2023-08-12T05:46:32;14.60;;;8.50;;
20966;SDS011;10642;50.682;18.510;2023-08-12T05:48:59;12.40;;;9.00;;
20966;SDS011;10642;50.682;18.510;2023-08-12T05:51:26;12.70;;;8.17;;
20966;SDS011;10642;50.682;18.510;2023-08-12T05:53:56;13.10;;;7.33;;
20966;SDS011;10642;50.682;18.510;2023-08-12T05:56:23;11.63;;;7.93;;
20966;SDS011;10642;50.682;18.510;2023-08-12T05:58:49;9.80;;;7.83;;
20966;SDS011;10642;50.682;18.510;2023-08-12T06:01:17;13.07;;;7.83;;
20966;SDS011;10642;50.682;18.510;2023-08-12T06:03:44;11.87;;;8.00;;
20966;SDS011;10642;50.682;18.510;2023-08-12T06:06:11;14.60;;;7.90;;
20966;SDS011;10642;50.682;18.510;2023-08-12T06:08:38;12.03;;;8.07;;
20966;SDS011;10642;50.682;18.510;2023-08-12T06:11:05;9.73;;;7.73;;
20966;SDS011;10642;50.682;18.510;2023-08-12T06:13:32;14.40;;;8.03;;
20966;SDS011;10642;50.682;18.510;2023-08-12T06:15:59;15.50;;;8.47;;
20966;SDS011;10642;50.682;18.510;2023-08-12T06:18:26;10.43;;;7.70;;
20966;SDS011;10642;50.682;18.510;2023-08-12T06:20:53;12.00;;;8.37;;
20966;SDS011;10642;50.682;18.510;2023-08-12T06:23:20;12.30;;;7.57;;
20966;SDS011;10642;50.682;18.510;2023-08-12T06:25:47;10.20;;;7.17;;
20966;SDS011;10642;50.682;18.510;2023-08-12T06:28:13;12.10;;;6.83;;
20966;SDS011;10642;50.682;18.510;2023-08-12T06:30:44;8.20;;;6.70;;
20966;SDS011;10642;50.682;18.510;2023-08-12T06:33:11;13.07;;;6.83;;
20966;SDS011;10642;50.682;18.510;2023-08-12T06:35:37;9.23;;;6.43;;
20966;SDS011;10642;50.682;18.510;2023-08-12T06:38:06;9.57;;;6.70;;
20966;SDS011;10642;50.682;18.510;2023-08-12T06:40:33;8.80;;;6.70;;
20966;SDS011;10642;50.682;18.510;2023-08-12T06:43:00;8.50;;;5.80;;
20966;SDS011;10642;50.682;18.510;2023-08-12T06:45:28;7.80;;;5.80;;
20966;SDS011;10642;50.682;18.510;2023-08-12T06:47:55;10.60;;;6.10;;
20966;SDS011;10642;50.682;18.510;2023-08-12T06:50:22;11.63;;;5.97;;
20966;SDS011;10642;50.682;18.510;2023-08-12T06:52:49;8.83;;;5.63;;
20966;SDS011;10642;50.682;18.510;2023-08-12T06:55:16;9.23;;;5.87;;
20966;SDS011;10642;50.682;18.510;2023-08-12T06:57:43;7.47;;;5.57;;
20966;SDS011;10642;50.682;18.510;2023-08-12T07:00:10;9.57;;;5.30;;
20966;SDS011;10642;50.682;18.510;2023-08-12T07:02:37;6.67;;;4.97;;
20966;SDS011;10642;50.682;18.510;2023-08-12T07:05:04;6.60;;;4.93;;
20966;SDS011;10642;50.682;18.510;2023-08-12T07:07:31;8.50;;;5.03;;
20966;SDS011;10642;50.682;18.510;2023-08-12T07:09:58;8.40;;;5.43;;
20966;SDS011;10642;50.682;18.510;2023-08-12T07:12:25;6.73;;;4.50;;
20966;SDS011;10642;50.682;18.510;2023-08-12T07:14:52;5.87;;;4.10;;
20966;SDS011;10642;50.682;18.510;2023-08-12T07:17:19;10.30;;;4.60;;
20966;SDS011;10642;50.682;18.510;2023-08-12T07:19:47;7.17;;;4.53;;
20966;SDS011;10642;50.682;18.510;2023-08-12T07:22:13;5.87;;;3.90;;
20966;SDS011;10642;50.682;18.510;2023-08-12T07:24:42;7.80;;;4.40;;
20966;SDS011;10642;50.682;18.510;2023-08-12T07:27:09;6.10;;;4.10;;
20966;SDS011;10642;50.682;18.510;2023-08-12T07:29:36;8.17;;;4.80;;
20966;SDS011;10642;50.682;18.510;2023-08-12T07:32:03;7.97;;;4.70;;
20966;SDS011;10642;50.682;18.510;2023-08-12T07:34:30;7.93;;;4.00;;
20966;SDS011;10642;50.682;18.510;2023-08-12T07:36:57;7.77;;;3.73;;
20966;SDS011;10642;50.682;18.510;2023-08-12T07:39:24;9.43;;;3.80;;
20966;SDS011;10642;50.682;18.510;2023-08-12T07:41:51;6.23;;;3.87;;
20966;SDS011;10642;50.682;18.510;2023-08-12T07:44:18;5.43;;;3.57;;
20966;SDS011;10642;50.682;18.510;2023-08-12T07:46:45;4.73;;;3.40;;
20966;SDS011;10642;50.682;18.510;2023-08-12T07:49:12;7.23;;;4.00;;
20966;SDS011;10642;50.682;18.510;2023-08-12T07:51:39;6.73;;;3.80;;
20966;SDS011;10642;50.682;18.510;2023-08-12T07:54:06;6.07;;;4.07;;
20966;SDS011;10642;50.682;18.510;2023-08-12T07:56:33;6.30;;;3.70;;
20966;SDS011;10642;50.682;18.510;2023-08-12T07:59:00;7.53;;;3.80;;
20966;SDS011;10642;50.682;18.510;2023-08-12T08:01:27;5.30;;;3.80;;
20966;SDS011;10642;50.682;18.510;2023-08-12T08:03:53;6.43;;;3.20;;
20966;SDS011;10642;50.682;18.510;2023-08-12T08:06:21;6.57;;;3.47;;
20966;SDS011;10642;50.682;18.510;2023-08-12T08:08:48;5.03;;;3.73;;
20966;SDS011;10642;50.682;18.510;2023-08-12T08:11:15;6.40;;;3.57;;
20966;SDS011;10642;50.682;18.510;2023-08-12T08:13:42;5.13;;;3.50;;
20966;SDS011;10642;50.682;18.510;2023-08-12T08:16:09;7.70;;;3.87;;
20966;SDS011;10642;50.682;18.510;2023-08-12T08:18:36;7.67;;;3.60;;
20966;SDS011;10642;50.682;18.510;2023-08-12T08:21:03;5.87;;;3.77;;
20966;SDS011;10642;50.682;18.510;2023-08-12T08:23:31;6.50;;;3.93;;
20966;SDS011;10642;50.682;18.510;2023-08-12T08:25:58;7.57;;;3.37;;
20966;SDS011;10642;50.682;18.510;2023-08-12T08:28:25;5.13;;;3.40;;
20966;SDS011;10642;50.682;18.510;2023-08-12T08:30:52;6.23;;;3.50;;
20966;SDS011;10642;50.682;18.510;2023-08-12T08:33:19;6.80;;;3.40;;
20966;SDS011;10642;50.682;18.510;2023-08-12T08:35:46;3.77;;;3.20;;
20966;SDS011;10642;50.682;18.510;2023-08-12T08:38:13;6.53;;;3.43;;
20966;SDS011;10642;50.682;18.510;2023-08-12T08:40:40;5.80;;;3.70;;
20966;SDS011;10642;50.682;18.510;2023-08-12T08:43:07;7.23;;;3.20;;
20966;SDS011;10642;50.682;18.510;2023-08-12T08:45:34;6.73;;;3.10;;
20966;SDS011;10642;50.682;18.510;2023-08-12T08:48:01;5.80;;;3.33;;
20966;SDS011;10642;50.682;18.510;2023-08-12T08:50:29;4.40;;;2.57;;
20966;SDS011;10642;50.682;18.510;2023-08-12T08:52:57;7.07;;;3.50;;
20966;SDS011;10642;50.682;18.510;2023-08-12T08:55:24;4.67;;;3.10;;
20966;SDS011;10642;50.682;18.510;2023-08-12T08:57:51;5.50;;;3.07;;
20966;SDS011;10642;50.682;18.510;2023-08-12T09:00:28;4.53;;;2.80;;
20966;SDS011;10642;50.682;18.510;2023-08-12T09:02:55;4.77;;;2.90;;
20966;SDS011;10642;50.682;18.510;2023-08-12T09:05:24;4.17;;;2.50;;
20966;SDS011;10642;50.682;18.510;2023-08-12T09:07:52;3.53;;;2.70;;
20966;SDS011;10642;50.682;18.510;2023-08-12T09:10:21;4.50;;;2.77;;
20966;SDS011;10642;50.682;18.510;2023-08-12T09:12:57;4.70;;;2.77;;
20966;SDS011;10642;50.682;18.510;2023-08-12T09:15:24;5.20;;;2.97;;
20966;SDS011;10642;50.682;18.510;2023-08-12T09:17:51;4.03;;;2.97;;
20966;SDS011;10642;50.682;18.510;2023-08-12T09:20:18;5.40;;;2.87;;
20966;SDS011;10642;50.682;18.510;2023-08-12T09:22:45;5.27;;;3.10;;
20966;SDS011;10642;50.682;18.510;2023-08-12T09:25:12;4.53;;;2.80;;
20966;SDS011;10642;50.682;18.510;2023-08-12T09:27:39;6.30;;;3.80;;
20966;SDS011;10642;50.682;18.510;2023-08-12T09:30:06;4.10;;;3.00;;
20966;SDS011;10642;50.682;18.510;2023-08-12T09:32:35;6.30;;;2.57;;
20966;SDS011;10642;50.682;18.510;2023-08-12T09:35:02;5.97;;;2.90;;
20966;SDS011;10642;50.682;18.510;2023-08-12T09:37:33;8.20;;;2.87;;
20966;SDS011;10642;50.682;18.510;2023-08-12T09:40:00;8.77;;;3.37;;
20966;SDS011;10642;50.682;18.510;2023-08-12T09:42:27;4.47;;;2.77;;
20966;SDS011;10642;50.682;18.510;2023-08-12T09:44:55;7.87;;;2.90;;
20966;SDS011;10642;50.682;18.510;2023-08-12T09:47:24;5.50;;;2.97;;
20966;SDS011;10642;50.682;18.510;2023-08-12T09:49:51;4.40;;;2.90;;
20966;SDS011;10642;50.682;18.510;2023-08-12T09:52:18;5.47;;;3.40;;
20966;SDS011;10642;50.682;18.510;2023-08-12T09:54:45;5.17;;;3.20;;
20966;SDS011;10642;50.682;18.510;2023-08-12T09:57:12;4.97;;;2.57;;
20966;SDS011;10642;50.682;18.510;2023-08-12T09:59:41;5.50;;;2.60;;
20966;SDS011;10642;50.682;18.510;2023-08-12T10:02:08;2.60;;;2.20;;
20966;SDS011;10642;50.682;18.510;2023-08-12T10:04:45;3.43;;;2.60;;
20966;SDS011;10642;50.682;18.510;2023-08-12T10:07:12;3.90;;;2.57;;
20966;SDS011;10642;50.682;18.510;2023-08-12T10:09:39;6.17;;;3.03;;
20966;SDS011;10642;50.682;18.510;2023-08-12T10:12:07;5.17;;;2.70;;
20966;SDS011;10642;50.682;18.510;2023-08-12T10:14:34;7.70;;;2.90;;
20966;SDS011;10642;50.682;18.510;2023-08-12T10:17:01;6.77;;;3.13;;
20966;SDS011;10642;50.682;18.510;2023-08-12T10:19:32;4.40;;;2.67;;
20966;SDS011;10642;50.682;18.510;2023-08-12T10:21:59;5.40;;;3.17;;
20966;SDS011;10642;50.682;18.510;2023-08-12T10:24:26;3.63;;;2.73;;
20966;SDS011;10642;50.682;18.510;2023-08-12T10:26:53;5.77;;;2.57;;
20966;SDS011;10642;50.682;18.510;2023-08-12T10:29:22;3.93;;;2.73;;
20966;SDS011;10642;50.682;18.510;2023-08-12T10:31:49;6.70;;;3.00;;
20966;SDS011;10642;50.682;18.510;2023-08-12T10:34:20;3.33;;;2.40;;
20966;SDS011;10642;50.682;18.510;2023-08-12T10:36:48;5.97;;;2.87;;
20966;SDS011;10642;50.682;18.510;2023-08-12T10:39:28;2.83;;;2.20;;
20966;SDS011;10642;50.682;18.510;2023-08-12T10:41:57;5.60;;;2.40;;
20966;SDS011;10642;50.682;18.510;2023-08-12T10:44:43;4.40;;;2.50;;
20966;SDS011;10642;50.682;18.510;2023-08-12T10:47:15;4.50;;;2.47;;
20966;SDS011;10642;50.682;18.510;2023-08-12T10:49:43;4.27;;;2.70;;
20966;SDS011;10642;50.682;18.510;2023-08-12T10:52:26;3.63;;;2.60;;
20966;SDS011;10642;50.682;18.510;2023-08-12T10:54:54;2.50;;;2.07;;
20966;SDS011;10642;50.682;18.510;2023-08-12T10:57:36;5.17;;;2.50;;
20966;SDS011;10642;50.682;18.510;2023-08-12T11:00:10;4.93;;;2.60;;
20966;SDS011;10642;50.682;18.510;2023-08-12T11:02:37;3.33;;;2.30;;
20966;SDS011;10642;50.682;18.510;2023-08-12T11:05:08;3.37;;;2.60;;
20966;SDS011;10642;50.682;18.510;2023-08-12T11:07:48;4.83;;;3.27;;
20966;SDS011;10642;50.682;18.510;2023-08-12T11:10:20;2.90;;;2.23;;
20966;SDS011;10642;50.682;18.510;2023-08-12T11:12:52;6.90;;;3.63;;
20966;SDS011;10642;50.682;18.510;2023-08-12T11:15:29;4.93;;;2.63;;
20966;SDS011;10642;50.682;18.510;2023-08-12T11:17:56;7.97;;;3.17;;
20966;SDS011;10642;50.682;18.510;2023-08-12T11:20:23;8.00;;;3.03;;
20966;SDS011;10642;50.682;18.510;2023-08-12T11:22:50;4.83;;;3.00;;
20966;SDS011;10642;50.682;18.510;2023-08-12T11:25:19;6.60;;;3.43;;
20966;SDS011;10642;50.682;18.510;2023-08-12T11:27:47;3.87;;;3.00;;
20966;SDS011;10642;50.682;18.510;2023-08-12T11:30:15;3.43;;;2.33;;
20966;SDS011;10642;50.682;18.510;2023-08-12T11:32:43;5.53;;;2.20;;
20966;SDS011;10642;50.682;18.510;2023-08-12T11:35:11;4.30;;;2.70;;
20966;SDS011;10642;50.682;18.510;2023-08-12T11:37:38;6.93;;;2.97;;
20966;SDS011;10642;50.682;18.510;2023-08-12T11:40:06;5.80;;;2.77;;
20966;SDS011;10642;50.682;18.510;2023-08-12T11:42:38;5.43;;;2.77;;
20966;SDS011;10642;50.682;18.510;2023-08-12T11:45:06;3.80;;;2.83;;
20966;SDS011;10642;50.682;18.510;2023-08-12T11:47:33;4.93;;;2.60;;
20966;SDS011;10642;50.682;18.510;2023-08-12T11:50:04;4.13;;;2.47;;
20966;SDS011;10642;50.682;18.510;2023-08-12T11:52:31;4.43;;;2.30;;
20966;SDS011;10642;50.682;18.510;2023-08-12T11:54:58;6.67;;;3.07;;
20966;SDS011;10642;50.682;18.510;2023-08-12T11:57:26;6.57;;;2.20;;
20966;SDS011;10642;50.682;18.510;2023-08-12T12:00:03;3.50;;;2.70;;
20966;SDS011;10642;50.682;18.510;2023-08-12T12:02:45;3.60;;;2.43;;
20966;SDS011;10642;50.682;18.510;2023-08-12T12:05:12;5.23;;;2.40;;
20966;SDS011;10642;50.682;18.510;2023-08-12T12:07:40;6.90;;;2.23;;
20966;SDS011;10642;50.682;18.510;2023-08-12T12:10:07;6.83;;;2.33;;
20966;SDS011;10642;50.682;18.510;2023-08-12T12:12:35;10.10;;;2.77;;
20966;SDS011;10642;50.682;18.510;2023-08-12T12:15:02;5.83;;;3.07;;
20966;SDS011;10642;50.682;18.510;2023-08-12T12:17:29;4.37;;;2.90;;
20966;SDS011;10642;50.682;18.510;2023-08-12T12:19:57;3.23;;;2.87;;
20966;SDS011;10642;50.682;18.510;2023-08-12T12:22:31;6.83;;;3.10;;
20966;SDS011;10642;50.682;18.510;2023-08-12T12:25:06;6.50;;;2.70;;
20966;SDS011;10642;50.682;18.510;2023-08-12T12:27:33;9.93;;;2.73;;
20966;SDS011;10642;50.682;18.510;2023-08-12T12:30:00;4.30;;;2.50;;
20966;SDS011;10642;50.682;18.510;2023-08-12T12:32:27;4.53;;;2.57;;
20966;SDS011;10642;50.682;18.510;2023-08-12T12:34:54;5.00;;;2.67;;
20966;SDS011;10642;50.682;18.510;2023-08-12T12:37:21;3.50;;;2.73;;
20966;SDS011;10642;50.682;18.510;2023-08-12T12:39:48;4.93;;;2.40;;
20966;SDS011;10642;50.682;18.510;2023-08-12T12:42:15;6.13;;;3.60;;
20966;SDS011;10642;50.682;18.510;2023-08-12T12:44:42;5.37;;;2.97;;
20966;SDS011;10642;50.682;18.510;2023-08-12T12:47:09;5.00;;;3.10;;
20966;SDS011;10642;50.682;18.510;2023-08-12T12:49:39;6.70;;;3.10;;
20966;SDS011;10642;50.682;18.510;2023-08-12T12:52:08;3.97;;;2.70;;
20966;SDS011;10642;50.682;18.510;2023-08-12T12:54:34;7.10;;;2.70;;
20966;SDS011;10642;50.682;18.510;2023-08-12T12:57:02;5.77;;;2.67;;
20966;SDS011;10642;50.682;18.510;2023-08-12T12:59:30;3.63;;;2.60;;
20966;SDS011;10642;50.682;18.510;2023-08-12T13:01:57;3.67;;;2.60;;
20966;SDS011;10642;50.682;18.510;2023-08-12T13:04:24;5.20;;;3.27;;
20966;SDS011;10642;50.682;18.510;2023-08-12T13:06:51;3.67;;;2.67;;
20966;SDS011;10642;50.682;18.510;2023-08-12T13:09:18;4.33;;;2.50;;
20966;SDS011;10642;50.682;18.510;2023-08-12T13:11:45;10.70;;;2.40;;
20966;SDS011;10642;50.682;18.510;2023-08-12T13:14:11;3.77;;;2.40;;
20966;SDS011;10642;50.682;18.510;2023-08-12T13:16:38;4.53;;;2.80;;
20966;SDS011;10642;50.682;18.510;2023-08-12T13:19:05;3.53;;;2.50;;
20966;SDS011;10642;50.682;18.510;2023-08-12T13:21:32;5.20;;;2.90;;
20966;SDS011;10642;50.682;18.510;2023-08-12T13:24:00;4.07;;;2.47;;
20966;SDS011;10642;50.682;18.510;2023-08-12T13:26:28;3.63;;;2.40;;
20966;SDS011;10642;50.682;18.510;2023-08-12T13:28:55;3.40;;;2.23;;
20966;SDS011;10642;50.682;18.510;2023-08-12T13:31:22;8.07;;;2.33;;
20966;SDS011;10642;50.682;18.510;2023-08-12T13:33:50;4.30;;;2.37;;
20966;SDS011;10642;50.682;18.510;2023-08-12T13:36:16;3.93;;;2.27;;
20966;SDS011;10642;50.682;18.510;2023-08-12T13:38:44;3.17;;;2.63;;
20966;SDS011;10642;50.682;18.510;2023-08-12T13:41:10;7.73;;;2.13;;
20966;SDS011;10642;50.682;18.510;2023-08-12T13:43:37;3.17;;;1.83;;
20966;SDS011;10642;50.682;18.510;2023-08-12T13:46:04;5.37;;;2.07;;
20966;SDS011;10642;50.682;18.510;2023-08-12T13:48:31;2.93;;;2.00;;
20966;SDS011;10642;50.682;18.510;2023-08-12T13:50:58;5.17;;;2.10;;
20966;SDS011;10642;50.682;18.510;2023-08-12T13:53:27;6.43;;;2.50;;
20966;SDS011;10642;50.682;18.510;2023-08-12T13:55:54;4.27;;;2.30;;
20966;SDS011;10642;50.682;18.510;2023-08-12T13:58:21;3.53;;;2.20;;
20966;SDS011;10642;50.682;18.510;2023-08-12T14:00:48;3.87;;;2.00;;
20966;SDS011;10642;50.682;18.510;2023-08-12T14:03:15;2.90;;;1.83;;
20966;SDS011;10642;50.682;18.510;2023-08-12T14:05:42;3.47;;;2.10;;
20966;SDS011;10642;50.682;18.510;2023-08-12T14:08:09;6.47;;;2.10;;
20966;SDS011;10642;50.682;18.510;2023-08-12T14:10:35;2.67;;;1.70;;
20966;SDS011;10642;50.682;18.510;2023-08-12T14:13:02;3.03;;;1.67;;
20966;SDS011;10642;50.682;18.510;2023-08-12T14:15:30;2.90;;;1.87;;
20966;SDS011;10642;50.682;18.510;2023-08-12T14:17:57;6.83;;;2.07;;
20966;SDS011;10642;50.682;18.510;2023-08-12T14:20:24;4.10;;;2.17;;
20966;SDS011;10642;50.682;18.510;2023-08-12T14:22:51;3.70;;;1.87;;
20966;SDS011;10642;50.682;18.510;2023-08-12T14:25:18;4.87;;;1.77;;
20966;SDS011;10642;50.682;18.510;2023-08-12T14:27:44;4.23;;;3.17;;
20966;SDS011;10642;50.682;18.510;2023-08-12T14:30:11;7.23;;;2.43;;
20966;SDS011;10642;50.682;18.510;2023-08-12T14:32:38;3.13;;;2.27;;